createdAt,value
2022-07-29T00:01:21.165Z,1.42
2022-07-29T00:03:50.844Z,1.40
2022-07-29T00:06:19.259Z,1.50
2022-07-29T00:08:47.432Z,1.40
2022-07-29T00:11:15.593Z,1.40
2022-07-29T00:13:47.707Z,1.52
2022-07-29T00:16:19.207Z,1.25
2022-07-29T00:18:47.467Z,1.67
2022-07-29T00:21:17.095Z,1.63
2022-07-29T00:23:45.382Z,1.20
2022-07-29T00:26:13.543Z,1.60
2022-07-29T00:28:41.688Z,1.20
2022-07-29T00:31:10.022Z,1.85
2022-07-29T00:33:38.227Z,1.58
2022-07-29T00:36:06.003Z,1.58
2022-07-29T00:38:35.571Z,1.30
2022-07-29T00:41:03.719Z,1.40
2022-07-29T00:43:31.866Z,1.65
2022-07-29T00:46:00.138Z,1.20
2022-07-29T00:48:28.322Z,1.30
2022-07-29T00:50:57.983Z,1.38
2022-07-29T00:53:26.879Z,1.25
2022-07-29T00:55:58.279Z,1.40
2022-07-29T00:58:26.871Z,1.40
2022-07-29T01:00:55.424Z,1.40
2022-07-29T01:03:23.715Z,1.40
2022-07-29T01:05:52.679Z,1.30
2022-07-29T01:08:22.238Z,1.20
2022-07-29T01:10:51.346Z,1.30
2022-07-29T01:13:21.768Z,1.50
2022-07-29T01:15:57.398Z,1.50
2022-07-29T01:18:32.929Z,1.30
2022-07-29T01:21:34.527Z,1.50
2022-07-29T01:24:32.243Z,1.30
2022-07-29T01:27:11.557Z,1.33
2022-07-29T01:29:49.153Z,1.50
2022-07-29T01:32:28.145Z,1.33
2022-07-29T01:35:03.983Z,1.35
2022-07-29T01:37:39.879Z,1.30
2022-07-29T01:40:14.035Z,1.80
2022-07-29T01:42:46.702Z,1.50
2022-07-29T01:45:21.539Z,1.48
2022-07-29T01:48:01.133Z,1.50
2022-07-29T01:50:33.392Z,1.50
2022-07-29T01:53:04.169Z,1.70
2022-07-29T01:55:36.495Z,1.27
2022-07-29T01:58:07.289Z,1.30
2022-07-29T02:00:38.036Z,1.23
2022-07-29T02:03:11.582Z,1.30
2022-07-29T02:05:43.057Z,1.33
2022-07-29T02:08:13.916Z,1.35
2022-07-29T02:10:44.277Z,1.70
2022-07-29T02:13:14.645Z,1.55
2022-07-29T02:15:46.226Z,1.42
2022-07-29T02:18:18.404Z,1.42
2022-07-29T02:20:50.122Z,1.60
2022-07-29T02:23:24.132Z,1.42
2022-07-29T02:25:55.567Z,1.50
2022-07-29T02:28:26.270Z,1.92
2022-07-29T02:30:59.793Z,1.60
2022-07-29T02:33:29.141Z,1.80
2022-07-29T02:35:58.799Z,1.55
2022-07-29T02:38:47.018Z,1.50
2022-07-29T02:41:20.497Z,1.80
2022-07-29T02:43:52.343Z,1.75
2022-07-29T02:46:31.463Z,1.67
2022-07-29T02:49:06.173Z,1.73
2022-07-29T02:51:44.149Z,1.60
2022-07-29T02:54:24.555Z,1.70
2022-07-29T02:56:56.420Z,1.80
2022-07-29T02:59:28.995Z,1.75
2022-07-29T03:02:00.991Z,1.45
2022-07-29T03:04:30.381Z,1.88
2022-07-29T03:07:01.205Z,1.67
2022-07-29T03:09:30.563Z,1.63
2022-07-29T03:11:59.595Z,1.70
2022-07-29T03:14:28.306Z,1.67
2022-07-29T03:16:58.232Z,1.50
2022-07-29T03:19:26.570Z,1.70
2022-07-29T03:21:57.239Z,1.67
2022-07-29T03:24:29.707Z,1.90
2022-07-29T03:26:58.868Z,1.70
2022-07-29T03:29:33.143Z,1.50
2022-07-29T03:32:08.482Z,1.80
2022-07-29T03:34:38.239Z,1.60
2022-07-29T03:37:07.188Z,1.75
2022-07-29T03:39:40.000Z,1.80
2022-07-29T03:42:09.837Z,1.60
2022-07-29T03:44:39.092Z,1.45
2022-07-29T03:47:10.219Z,1.60
2022-07-29T03:49:39.790Z,1.77
2022-07-29T03:52:08.352Z,1.67
2022-07-29T03:54:36.759Z,1.83
2022-07-29T03:57:07.700Z,1.85
2022-07-29T03:59:36.703Z,2.00
2022-07-29T04:02:06.425Z,1.80
2022-07-29T04:04:37.089Z,1.60
2022-07-29T04:07:05.766Z,1.65
2022-07-29T04:09:34.102Z,1.70
2022-07-29T04:12:04.320Z,1.42
2022-07-29T04:14:34.021Z,1.60
2022-07-29T04:17:02.890Z,1.70
2022-07-29T04:19:31.165Z,1.90
2022-07-29T04:22:01.827Z,1.80
2022-07-29T04:24:30.406Z,1.73
2022-07-29T04:26:58.715Z,1.77
2022-07-29T04:29:27.011Z,1.65
2022-07-29T04:31:55.214Z,1.83
2022-07-29T04:34:23.358Z,1.40
2022-07-29T04:36:56.714Z,1.67
2022-07-29T04:39:28.209Z,1.70
2022-07-29T04:41:59.068Z,1.55
2022-07-29T04:44:28.564Z,1.70
2022-07-29T04:46:58.586Z,1.80
2022-07-29T04:49:27.049Z,1.92
2022-07-29T04:51:55.564Z,1.50
2022-07-29T04:54:24.225Z,2.00
2022-07-29T04:56:54.989Z,1.50
2022-07-29T04:59:23.542Z,1.95
2022-07-29T05:01:51.734Z,2.05
2022-07-29T05:04:20.577Z,1.85
2022-07-29T05:06:49.880Z,1.92
2022-07-29T05:09:18.134Z,1.70
2022-07-29T05:11:46.315Z,1.88
2022-07-29T05:14:16.404Z,1.75
2022-07-29T05:16:45.403Z,1.85
2022-07-29T05:19:14.628Z,1.60
2022-07-29T05:21:43.520Z,1.63
2022-07-29T05:24:12.521Z,1.90
2022-07-29T05:26:41.498Z,1.80
2022-07-29T05:29:42.840Z,2.10
2022-07-29T05:31:59.861Z,2.00
2022-07-29T05:34:28.532Z,1.80
2022-07-29T05:36:56.934Z,1.60
2022-07-29T05:39:47.611Z,1.60
2022-07-29T05:42:13.881Z,1.92
2022-07-29T05:44:42.257Z,2.20
2022-07-29T05:47:12.490Z,1.92
2022-07-29T05:49:40.667Z,1.90
2022-07-29T05:52:08.850Z,1.92
2022-07-29T05:54:37.146Z,1.88
2022-07-29T05:57:06.441Z,1.65
2022-07-29T05:59:37.723Z,2.03
2022-07-29T06:02:06.405Z,1.90
2022-07-29T06:04:36.317Z,2.00
2022-07-29T06:07:04.698Z,2.28
2022-07-29T06:09:36.058Z,1.83
2022-07-29T06:12:05.263Z,1.88
2022-07-29T06:14:33.668Z,1.95
2022-07-29T06:17:01.840Z,1.90
2022-07-29T06:19:30.118Z,1.80
2022-07-29T06:21:59.737Z,1.80
2022-07-29T06:24:29.440Z,1.70
2022-07-29T06:26:58.867Z,2.15
2022-07-29T06:29:27.164Z,2.10
2022-07-29T06:31:55.336Z,1.88
2022-07-29T06:34:23.586Z,2.20
2022-07-29T06:36:53.585Z,2.10
2022-07-29T06:39:23.965Z,2.40
2022-07-29T06:41:52.411Z,2.05
2022-07-29T06:44:26.681Z,2.13
2022-07-29T06:46:55.667Z,2.45
2022-07-29T06:49:25.329Z,2.08
2022-07-29T06:51:53.675Z,2.10
2022-07-29T06:54:23.576Z,2.30
2022-07-29T06:56:51.728Z,2.20
2022-07-29T06:59:21.671Z,2.30
2022-07-29T07:01:54.452Z,2.28
2022-07-29T07:04:22.630Z,2.38
2022-07-29T07:06:50.835Z,2.53
2022-07-29T07:09:19.032Z,2.20
2022-07-29T07:11:49.706Z,2.08
2022-07-29T07:14:18.914Z,2.67
2022-07-29T07:16:47.317Z,2.47
2022-07-29T07:19:16.283Z,2.45
2022-07-29T07:21:44.465Z,2.15
2022-07-29T07:24:13.114Z,2.00
2022-07-29T07:26:41.698Z,2.15
2022-07-29T07:29:12.400Z,2.28
2022-07-29T07:31:41.143Z,2.10
2022-07-29T07:34:09.564Z,2.20
2022-07-29T07:36:37.883Z,2.60
2022-07-29T07:39:06.439Z,2.20
2022-07-29T07:41:34.786Z,2.20
2022-07-29T07:44:02.976Z,2.17
2022-07-29T07:46:32.636Z,2.22
2022-07-29T07:49:00.913Z,2.25
2022-07-29T07:51:29.137Z,1.80
2022-07-29T07:53:57.277Z,2.00
2022-07-29T07:56:25.934Z,1.95
2022-07-29T07:58:54.103Z,2.13
2022-07-29T08:01:23.896Z,2.20
2022-07-29T08:03:53.597Z,2.38
2022-07-29T08:06:21.865Z,2.10
2022-07-29T08:08:50.015Z,1.90
2022-07-29T08:11:18.245Z,2.40
2022-07-29T08:13:47.847Z,2.30
2022-07-29T08:16:16.973Z,2.25
2022-07-29T08:18:46.584Z,2.33
2022-07-29T08:21:17.225Z,2.00
2022-07-29T08:23:58.683Z,2.15
2022-07-29T08:26:29.068Z,1.98
2022-07-29T08:28:57.285Z,2.28
2022-07-29T08:31:25.730Z,2.28
2022-07-29T08:33:54.016Z,2.75
2022-07-29T08:36:23.571Z,2.13
2022-07-29T08:38:51.996Z,2.47
2022-07-29T08:41:20.837Z,2.53
2022-07-29T08:43:49.644Z,2.00
2022-07-29T08:46:19.409Z,2.13
2022-07-29T08:48:48.360Z,2.20
2022-07-29T08:51:19.308Z,2.22
2022-07-29T08:53:51.083Z,2.28
2022-07-29T08:56:21.491Z,2.33
2022-07-29T08:58:52.176Z,2.08
2022-07-29T09:01:36.198Z,2.22
2022-07-29T09:04:07.819Z,2.08
2022-07-29T09:06:39.277Z,2.22
2022-07-29T09:09:10.098Z,2.30
2022-07-29T09:11:38.455Z,2.20
2022-07-29T09:14:06.621Z,2.33
2022-07-29T09:17:01.048Z,2.40
2022-07-29T09:19:31.993Z,2.70
2022-07-29T09:22:01.122Z,2.17
2022-07-29T09:24:44.341Z,2.30
2022-07-29T09:27:23.938Z,2.47
2022-07-29T09:29:59.903Z,2.60
2022-07-29T09:32:29.142Z,2.40
2022-07-29T09:35:16.106Z,2.20
2022-07-29T09:37:44.585Z,2.40
2022-07-29T09:40:17.836Z,2.17
2022-07-29T09:42:46.562Z,2.22
2022-07-29T09:45:27.652Z,2.40
2022-07-29T09:47:58.341Z,2.30
2022-07-29T09:50:37.679Z,2.30
2022-07-29T09:53:06.034Z,2.40
2022-07-29T09:55:47.714Z,2.55
2022-07-29T09:58:20.026Z,2.50
2022-07-29T10:00:51.018Z,2.80
2022-07-29T10:03:20.291Z,2.22
2022-07-29T10:06:05.328Z,2.30
2022-07-29T10:08:33.756Z,2.53
2022-07-29T10:11:13.213Z,2.15
2022-07-29T10:13:42.245Z,2.45
2022-07-29T10:16:10.950Z,2.95
2022-07-29T10:18:41.101Z,2.65
2022-07-29T10:21:11.185Z,3.05
2022-07-29T10:24:01.575Z,2.58
2022-07-29T10:26:32.296Z,2.63
2022-07-29T10:29:00.704Z,2.28
2022-07-29T10:31:37.006Z,2.60
2022-07-29T10:34:10.137Z,2.72
2022-07-29T10:36:51.873Z,2.50
2022-07-29T10:39:41.670Z,2.35
2022-07-29T10:42:29.782Z,2.50
2022-07-29T10:45:04.354Z,2.40
2022-07-29T10:47:35.187Z,2.70
2022-07-29T10:50:06.135Z,2.90
2022-07-29T10:52:57.416Z,2.72
2022-07-29T10:55:47.798Z,2.90
2022-07-29T10:58:19.375Z,2.38
2022-07-29T11:00:49.546Z,2.85
2022-07-29T11:03:50.603Z,3.08
2022-07-29T11:06:26.262Z,2.45
2022-07-29T11:09:25.739Z,2.80
2022-07-29T11:12:04.252Z,2.40
2022-07-29T11:14:59.924Z,2.50
2022-07-29T11:17:37.608Z,2.60
2022-07-29T11:20:50.950Z,2.60
2022-07-29T11:23:21.748Z,2.80
2022-07-29T11:26:25.487Z,2.63
2022-07-29T11:28:59.527Z,2.80
2022-07-29T11:31:40.313Z,2.80
2022-07-29T11:34:28.234Z,2.47
2022-07-29T11:37:18.010Z,3.05
2022-07-29T11:39:49.355Z,2.60
2022-07-29T11:42:46.398Z,3.08
2022-07-29T11:45:44.187Z,3.15
2022-07-29T11:48:28.432Z,3.00
2022-07-29T11:50:58.576Z,2.50
2022-07-29T11:53:29.288Z,2.35
2022-07-29T11:56:02.596Z,2.40
2022-07-29T11:58:32.488Z,2.75
2022-07-29T12:01:04.444Z,2.70
2022-07-29T12:03:36.677Z,2.70
2022-07-29T12:06:13.972Z,2.50
2022-07-29T12:08:44.808Z,2.50
2022-07-29T12:11:21.801Z,2.70
2022-07-29T12:13:51.141Z,2.80
2022-07-29T12:16:25.833Z,2.80
2022-07-29T12:19:00.678Z,2.60
2022-07-29T12:21:31.280Z,2.88
2022-07-29T12:24:08.779Z,2.58
2022-07-29T12:26:38.378Z,2.72
2022-07-29T12:29:11.354Z,2.58
2022-07-29T12:31:45.373Z,2.60
2022-07-29T12:34:30.513Z,3.40
2022-07-29T12:36:58.967Z,2.60
2022-07-29T12:39:29.081Z,2.85
2022-07-29T12:42:04.187Z,2.70
2022-07-29T12:44:46.422Z,2.97
2022-07-29T12:47:14.674Z,2.70
2022-07-29T12:49:44.128Z,2.95
2022-07-29T12:52:32.774Z,2.47
2022-07-29T12:55:01.762Z,2.80
2022-07-29T12:57:30.575Z,2.30
2022-07-29T13:00:08.727Z,2.60
2022-07-29T13:02:37.600Z,2.50
2022-07-29T13:05:09.212Z,2.70
2022-07-29T13:07:55.388Z,2.30
2022-07-29T13:10:26.169Z,2.60
2022-07-29T13:13:05.258Z,2.72
2022-07-29T13:15:34.229Z,2.75
2022-07-29T13:18:02.638Z,2.67
2022-07-29T13:20:32.786Z,2.60
2022-07-29T13:23:02.108Z,2.80
2022-07-29T13:25:32.602Z,2.85
2022-07-29T13:28:01.306Z,2.55
2022-07-29T13:30:30.107Z,2.80
2022-07-29T13:32:58.365Z,2.50
2022-07-29T13:35:26.477Z,2.80
2022-07-29T13:37:55.996Z,2.70
2022-07-29T13:40:24.135Z,2.60
2022-07-29T13:42:52.466Z,2.63
2022-07-29T13:45:20.620Z,2.55
2022-07-29T13:47:49.405Z,2.30
2022-07-29T13:50:17.706Z,2.33
2022-07-29T13:52:45.939Z,2.53
2022-07-29T13:55:15.466Z,2.33
2022-07-29T13:57:43.598Z,2.60
2022-07-29T14:00:12.987Z,2.60
2022-07-29T14:02:41.347Z,2.15
2022-07-29T14:05:10.756Z,2.58
2022-07-29T14:07:40.647Z,2.42
2022-07-29T14:10:09.704Z,2.42
2022-07-29T14:12:40.241Z,2.15
2022-07-29T14:15:09.571Z,2.30
2022-07-29T14:17:37.767Z,2.35
2022-07-29T14:20:07.309Z,2.13
2022-07-29T14:22:40.174Z,2.10
2022-07-29T14:25:14.713Z,2.40
2022-07-29T14:27:45.183Z,2.20
2022-07-29T14:30:14.256Z,2.42
2022-07-29T14:32:42.555Z,2.20
2022-07-29T14:35:10.835Z,2.30
2022-07-29T14:37:40.578Z,2.30
2022-07-29T14:40:10.703Z,2.03
2022-07-29T14:42:39.427Z,2.50
2022-07-29T14:45:11.311Z,2.35
2022-07-29T14:47:40.550Z,2.05
2022-07-29T14:50:11.341Z,2.38
2022-07-29T14:52:39.790Z,2.53
2022-07-29T14:55:19.414Z,2.08
2022-07-29T14:57:48.772Z,2.35
2022-07-29T15:00:19.436Z,2.67
2022-07-29T15:03:01.438Z,2.30
2022-07-29T15:05:31.086Z,2.15
2022-07-29T15:07:59.692Z,2.35
2022-07-29T15:10:28.226Z,2.60
2022-07-29T15:12:56.565Z,2.45
2022-07-29T15:15:26.453Z,2.17
2022-07-29T15:17:54.741Z,2.55
2022-07-29T15:20:26.090Z,2.60
2022-07-29T15:22:56.305Z,2.40
2022-07-29T15:25:24.796Z,2.45
2022-07-29T15:27:55.645Z,2.15
2022-07-29T15:30:33.175Z,2.38
2022-07-29T15:33:02.172Z,2.10
2022-07-29T15:35:30.370Z,2.35
2022-07-29T15:37:58.588Z,2.30
2022-07-29T15:40:26.856Z,1.95
2022-07-29T15:42:55.020Z,2.15
2022-07-29T15:45:23.349Z,1.88
2022-07-29T15:47:52.839Z,2.17
2022-07-29T15:50:21.495Z,2.20
2022-07-29T15:52:49.626Z,2.17
2022-07-29T15:55:18.923Z,1.90
2022-07-29T15:57:47.132Z,2.10
2022-07-29T16:00:17.467Z,2.70
2022-07-29T16:02:45.951Z,2.50
2022-07-29T16:05:15.568Z,2.20
2022-07-29T16:07:43.784Z,2.13
2022-07-29T16:10:11.903Z,2.40
2022-07-29T16:12:40.102Z,2.30
2022-07-29T16:15:10.406Z,2.72
2022-07-29T16:17:39.445Z,2.50
2022-07-29T16:20:08.822Z,2.20
2022-07-29T16:22:40.099Z,2.42
2022-07-29T16:25:09.158Z,3.20
2022-07-29T16:27:38.296Z,2.60
2022-07-29T16:30:09.519Z,2.60
2022-07-29T16:32:37.786Z,2.78
2022-07-29T16:35:06.815Z,2.75
2022-07-29T16:37:36.514Z,2.95
2022-07-29T16:40:11.519Z,3.13
2022-07-29T16:42:48.164Z,3.05
2022-07-29T16:45:17.478Z,2.72
2022-07-29T16:47:49.325Z,2.47
2022-07-29T16:50:18.385Z,3.10
2022-07-29T16:52:46.554Z,3.00
2022-07-29T16:55:16.138Z,2.83
2022-07-29T16:57:45.361Z,2.53
2022-07-29T17:00:15.192Z,2.53
2022-07-29T17:02:43.683Z,2.70
2022-07-29T17:05:12.660Z,2.40
2022-07-29T17:07:41.292Z,2.55
2022-07-29T17:10:10.948Z,2.60
2022-07-29T17:12:41.632Z,2.78
2022-07-29T17:15:11.925Z,2.53
2022-07-29T17:17:56.708Z,2.42
2022-07-29T17:20:26.689Z,2.15
2022-07-29T17:22:55.042Z,1.98
2022-07-29T17:25:24.726Z,1.92
2022-07-29T17:28:00.572Z,2.00
2022-07-29T17:30:29.612Z,1.92
2022-07-29T17:32:57.913Z,2.50
2022-07-29T17:35:43.435Z,2.13
2022-07-29T17:38:11.575Z,1.95
2022-07-29T17:40:39.692Z,2.05
2022-07-29T17:43:10.254Z,2.10
2022-07-29T17:45:48.709Z,2.15
2022-07-29T17:48:19.745Z,2.20
2022-07-29T17:50:48.987Z,1.88
2022-07-29T17:53:17.369Z,1.95
2022-07-29T17:55:48.488Z,1.83
2022-07-29T17:58:18.267Z,2.20
2022-07-29T18:00:46.635Z,2.20
2022-07-29T18:03:15.090Z,2.20
2022-07-29T18:05:43.513Z,2.30
2022-07-29T18:08:12.752Z,2.20
2022-07-29T18:10:41.631Z,2.75
2022-07-29T18:13:09.973Z,3.83
2022-07-29T18:15:39.924Z,2.63
2022-07-29T18:18:08.358Z,2.00
2022-07-29T18:20:36.657Z,1.80
2022-07-29T18:23:05.017Z,2.63
2022-07-29T18:25:33.241Z,3.08
2022-07-29T18:28:02.050Z,2.60
2022-07-29T18:30:30.826Z,2.50
2022-07-29T18:33:20.348Z,2.40
2022-07-29T18:35:50.284Z,2.50
2022-07-29T18:38:18.829Z,2.20
2022-07-29T18:40:47.380Z,2.20
2022-07-29T18:43:15.913Z,2.53
2022-07-29T18:45:44.109Z,2.38
2022-07-29T18:48:13.934Z,2.05
2022-07-29T18:50:42.406Z,2.63
2022-07-29T18:53:10.741Z,2.10
2022-07-29T18:55:38.920Z,2.33
2022-07-29T18:58:07.159Z,2.33
2022-07-29T19:00:35.379Z,2.42
2022-07-29T19:03:04.323Z,2.58
2022-07-29T19:05:34.212Z,2.10
2022-07-29T19:08:02.565Z,2.50
2022-07-29T19:10:30.992Z,2.60
2022-07-29T19:12:59.185Z,2.25
2022-07-29T19:15:27.580Z,2.85
2022-07-29T19:18:00.697Z,2.75
2022-07-29T19:20:30.306Z,2.45
2022-07-29T19:22:59.905Z,2.25
2022-07-29T19:25:28.025Z,2.63
2022-07-29T19:27:58.183Z,2.60
2022-07-29T19:30:26.551Z,2.55
2022-07-29T19:32:54.667Z,2.50
2022-07-29T19:35:28.065Z,2.50
2022-07-29T19:37:57.701Z,2.75
2022-07-29T19:40:28.416Z,2.65
2022-07-29T19:42:57.289Z,2.70
2022-07-29T19:45:26.268Z,2.30
2022-07-29T19:48:00.714Z,3.00
2022-07-29T19:50:29.501Z,2.70
2022-07-29T19:52:57.807Z,2.70
2022-07-29T19:55:27.469Z,3.22
2022-07-29T19:57:55.854Z,3.00
2022-07-29T20:00:25.087Z,2.67
2022-07-29T20:02:53.595Z,3.13
2022-07-29T20:05:22.283Z,2.60
2022-07-29T20:07:56.661Z,2.88
2022-07-29T20:10:25.137Z,2.78
2022-07-29T20:12:55.181Z,2.90
2022-07-29T20:15:23.819Z,2.95
2022-07-29T20:17:57.026Z,3.03
2022-07-29T20:20:26.530Z,2.92
2022-07-29T20:22:55.020Z,3.40
2022-07-29T20:25:23.433Z,3.08
2022-07-29T20:27:52.451Z,3.40
2022-07-29T20:30:23.312Z,4.00
2022-07-29T20:32:51.656Z,3.50
2022-07-29T20:35:22.225Z,3.47
2022-07-29T20:37:55.664Z,3.92
2022-07-29T20:40:25.136Z,3.60
2022-07-29T20:42:53.436Z,5.53
2022-07-29T20:45:23.804Z,3.33
2022-07-29T20:47:52.690Z,3.28
2022-07-29T20:50:23.709Z,3.35
2022-07-29T20:52:52.745Z,3.47
2022-07-29T20:55:21.474Z,3.55
2022-07-29T20:57:49.922Z,3.75
2022-07-29T21:00:18.389Z,3.20
2022-07-29T21:02:48.055Z,3.50
2022-07-29T21:05:16.440Z,3.85
2022-07-29T21:07:44.598Z,3.85
2022-07-29T21:10:14.078Z,3.72
2022-07-29T21:12:42.804Z,3.95
2022-07-29T21:15:13.447Z,4.00
2022-07-29T21:17:46.678Z,3.92
2022-07-29T21:20:17.822Z,3.47
2022-07-29T21:22:46.750Z,3.40
2022-07-29T21:25:15.009Z,3.40
2022-07-29T21:28:00.568Z,3.47
2022-07-29T21:30:28.800Z,3.50
2022-07-29T21:32:56.942Z,3.33
2022-07-29T21:36:01.628Z,3.33
2022-07-29T21:38:16.330Z,3.78
2022-07-29T21:40:44.591Z,3.85
2022-07-29T21:43:13.139Z,3.45
2022-07-29T21:45:41.817Z,3.65
2022-07-29T21:48:10.132Z,3.90
2022-07-29T21:50:39.645Z,3.70
2022-07-29T21:53:07.919Z,3.38
2022-07-29T21:55:39.265Z,3.47
2022-07-29T21:58:08.062Z,3.55
2022-07-29T22:00:36.737Z,3.53
2022-07-29T22:03:06.340Z,3.67
2022-07-29T22:05:35.428Z,3.35
2022-07-29T22:08:05.340Z,3.50
2022-07-29T22:10:33.889Z,3.67
2022-07-29T22:13:02.976Z,3.40
2022-07-29T22:15:31.408Z,3.47
2022-07-29T22:18:00.032Z,3.13
2022-07-29T22:20:28.324Z,3.45
2022-07-29T22:22:56.508Z,3.22
2022-07-29T22:25:26.251Z,3.40
2022-07-29T22:27:54.381Z,3.00
2022-07-29T22:30:22.642Z,2.90
2022-07-29T22:32:50.903Z,3.20
2022-07-29T22:35:19.219Z,2.92
2022-07-29T22:37:47.419Z,3.20
2022-07-29T22:40:15.633Z,3.17
2022-07-29T22:42:45.167Z,3.30
2022-07-29T22:45:13.344Z,2.95
2022-07-29T22:47:48.196Z,3.35
2022-07-29T22:50:17.205Z,3.22
2022-07-29T22:52:45.750Z,3.13
2022-07-29T22:55:14.113Z,3.30
2022-07-29T22:57:42.497Z,3.55
2022-07-29T23:00:14.153Z,3.08
2022-07-29T23:02:42.450Z,3.10
2022-07-29T23:05:11.268Z,3.03
2022-07-29T23:07:39.564Z,3.00
2022-07-29T23:10:08.776Z,3.20
2022-07-29T23:12:37.054Z,3.17
2022-07-29T23:15:05.862Z,3.20
2022-07-29T23:17:36.514Z,2.88
2022-07-29T23:20:07.858Z,3.58
2022-07-29T23:22:36.934Z,3.33
2022-07-29T23:25:06.746Z,3.17
2022-07-29T23:27:35.224Z,3.75
2022-07-29T23:30:03.581Z,3.60
2022-07-29T23:32:31.800Z,3.17
2022-07-29T23:35:05.256Z,3.47
2022-07-29T23:37:33.571Z,3.50
2022-07-29T23:40:01.755Z,3.58
2022-07-29T23:42:29.949Z,3.60
2022-07-29T23:44:58.179Z,3.75
2022-07-29T23:47:26.406Z,3.22
2022-07-29T23:49:54.570Z,3.40
2022-07-29T23:52:24.553Z,4.43
2022-07-29T23:54:53.021Z,4.00
2022-07-29T23:57:22.753Z,3.35
2022-07-29T23:59:51.117Z,3.75
